Terminal Aerodrome Forecast
Issued by NWS Boston, MA

Home | Current Version | Previous Version | Text Only | Print | Product List | Glossary On
Versions: 1 2 3 4 5 6 7 8 9 10 11 12 13 14 15 16 17 18 19 20 21 22 23 24 25
000
FTUS41 KBOX 302334 AAB
TAFBDL
TAF AMD
KBDL 302334Z 0100/0206 18009KT P6SM OVC040
     FM010600 13005KT P6SM -DZ OVC015
     FM010800 12005KT P6SM -DZ VCSH OVC012
     FM011000 12005KT P6SM -DZ OVC008
     FM011300 13004KT P6SM OVC008
     FM011800 18007KT P6SM BKN060
     FM020000 17009KT P6SM BKN050
     FM020300 16011G20KT 3SM -SHRA OVC008=

USA.gov is the U.S. government's official web portal to all federal, state and local government web resources and services.